< < Back
Terminal Aerodrome Forecast


Current Version              Previous Versions:   1  2  3  4  5  6  7  8  9  

Terminal Aerodrome Forecast

874
FTUS44 KMOB 230500
TAFPNS
TAF
KPNS 230522Z 2306/2406 26007KT P6SM FEW250
     FM231000 32005KT P6SM SKC
     FM232000 23008KT P6SM SCT050=

Latest METAR

132
SAUS70 KWBC 231300 RRI
MTRPNS
METAR KPNS 231253Z 32009KT 10SM CLR 27/23 A3002 RMK AO2 SLP165
T02720233


USA.gov is the U.S. government's official web portal to all federal, state and local government web resources and services.